sensor_id;sensor_type;location;lat;lon;timestamp;P1;durP1;ratioP1;P2;durP2;ratioP2
76863;SDS011;65834;52.364;9.754;2024-02-26T00:00:46;7.57;;;2.90;;
76863;SDS011;65834;52.364;9.754;2024-02-26T00:03:16;5.57;;;2.40;;
76863;SDS011;65834;52.364;9.754;2024-02-26T00:05:46;8.07;;;2.70;;
76863;SDS011;65834;52.364;9.754;2024-02-26T00:08:16;6.53;;;2.40;;
76863;SDS011;65834;52.364;9.754;2024-02-26T00:10:46;5.87;;;2.53;;
76863;SDS011;65834;52.364;9.754;2024-02-26T00:13:15;7.53;;;2.47;;
76863;SDS011;65834;52.364;9.754;2024-02-26T00:15:50;7.83;;;3.27;;
76863;SDS011;65834;52.364;9.754;2024-02-26T00:18:19;8.80;;;3.17;;
76863;SDS011;65834;52.364;9.754;2024-02-26T00:20:49;7.40;;;2.90;;
76863;SDS011;65834;52.364;9.754;2024-02-26T00:23:19;5.63;;;2.80;;
76863;SDS011;65834;52.364;9.754;2024-02-26T00:25:50;8.73;;;3.23;;
76863;SDS011;65834;52.364;9.754;2024-02-26T00:28:20;9.13;;;3.03;;
76863;SDS011;65834;52.364;9.754;2024-02-26T00:30:54;8.25;;;3.08;;
76863;SDS011;65834;52.364;9.754;2024-02-26T00:33:24;6.53;;;2.55;;
76863;SDS011;65834;52.364;9.754;2024-02-26T00:35:54;6.80;;;3.20;;
76863;SDS011;65834;52.364;9.754;2024-02-26T00:38:23;6.57;;;3.27;;
76863;SDS011;65834;52.364;9.754;2024-02-26T00:40:53;8.97;;;3.37;;
76863;SDS011;65834;52.364;9.754;2024-02-26T00:43:24;9.07;;;3.20;;
76863;SDS011;65834;52.364;9.754;2024-02-26T00:45:56;9.07;;;3.20;;
76863;SDS011;65834;52.364;9.754;2024-02-26T00:48:26;7.35;;;2.80;;
76863;SDS011;65834;52.364;9.754;2024-02-26T00:50:56;8.17;;;2.87;;
76863;SDS011;65834;52.364;9.754;2024-02-26T00:53:25;9.47;;;3.10;;
76863;SDS011;65834;52.364;9.754;2024-02-26T00:55:55;9.17;;;3.20;;
76863;SDS011;65834;52.364;9.754;2024-02-26T00:58:25;8.83;;;2.80;;
76863;SDS011;65834;52.364;9.754;2024-02-26T01:00:58;8.87;;;2.47;;
76863;SDS011;65834;52.364;9.754;2024-02-26T01:03:29;7.43;;;2.87;;
76863;SDS011;65834;52.364;9.754;2024-02-26T01:05:59;7.43;;;2.90;;
76863;SDS011;65834;52.364;9.754;2024-02-26T01:08:29;8.47;;;3.10;;
76863;SDS011;65834;52.364;9.754;2024-02-26T01:10:59;8.20;;;3.10;;
76863;SDS011;65834;52.364;9.754;2024-02-26T01:13:29;9.03;;;3.17;;
76863;SDS011;65834;52.364;9.754;2024-02-26T01:16:01;8.50;;;3.20;;
76863;SDS011;65834;52.364;9.754;2024-02-26T01:18:31;6.70;;;2.55;;
76863;SDS011;65834;52.364;9.754;2024-02-26T01:21:01;10.17;;;3.07;;
76863;SDS011;65834;52.364;9.754;2024-02-26T01:23:33;10.23;;;3.08;;
76863;SDS011;65834;52.364;9.754;2024-02-26T01:26:03;9.10;;;3.40;;
76863;SDS011;65834;52.364;9.754;2024-02-26T01:28:33;6.03;;;2.77;;
76863;SDS011;65834;52.364;9.754;2024-02-26T01:31:06;10.27;;;3.37;;
76863;SDS011;65834;52.364;9.754;2024-02-26T01:33:35;7.50;;;2.80;;
76863;SDS011;65834;52.364;9.754;2024-02-26T01:36:06;11.67;;;3.43;;
76863;SDS011;65834;52.364;9.754;2024-02-26T01:38:35;10.10;;;3.07;;
76863;SDS011;65834;52.364;9.754;2024-02-26T01:41:06;7.77;;;3.37;;
76863;SDS011;65834;52.364;9.754;2024-02-26T01:43:35;10.00;;;3.40;;
76863;SDS011;65834;52.364;9.754;2024-02-26T01:46:08;10.70;;;3.87;;
76863;SDS011;65834;52.364;9.754;2024-02-26T01:48:41;6.70;;;2.93;;
76863;SDS011;65834;52.364;9.754;2024-02-26T01:51:12;8.53;;;2.80;;
76863;SDS011;65834;52.364;9.754;2024-02-26T01:53:44;8.13;;;3.57;;
76863;SDS011;65834;52.364;9.754;2024-02-26T01:56:14;8.33;;;3.10;;
76863;SDS011;65834;52.364;9.754;2024-02-26T01:58:46;7.93;;;3.20;;
76863;SDS011;65834;52.364;9.754;2024-02-26T02:01:19;7.57;;;2.90;;
76863;SDS011;65834;52.364;9.754;2024-02-26T02:03:51;8.10;;;3.13;;
76863;SDS011;65834;52.364;9.754;2024-02-26T02:06:22;9.17;;;3.50;;
76863;SDS011;65834;52.364;9.754;2024-02-26T02:08:52;7.77;;;2.90;;
76863;SDS011;65834;52.364;9.754;2024-02-26T02:11:22;8.00;;;3.30;;
76863;SDS011;65834;52.364;9.754;2024-02-26T02:13:52;7.90;;;3.00;;
76863;SDS011;65834;52.364;9.754;2024-02-26T02:16:24;8.83;;;3.40;;
76863;SDS011;65834;52.364;9.754;2024-02-26T02:18:54;8.15;;;2.67;;
76863;SDS011;65834;52.364;9.754;2024-02-26T02:21:27;7.53;;;2.50;;
76863;SDS011;65834;52.364;9.754;2024-02-26T02:23:56;8.23;;;2.78;;
76863;SDS011;65834;52.364;9.754;2024-02-26T02:26:26;9.27;;;3.10;;
76863;SDS011;65834;52.364;9.754;2024-02-26T02:28:56;6.47;;;2.43;;
76863;SDS011;65834;52.364;9.754;2024-02-26T02:31:27;6.77;;;2.80;;
76863;SDS011;65834;52.364;9.754;2024-02-26T02:33:57;6.23;;;2.40;;
76863;SDS011;65834;52.364;9.754;2024-02-26T02:36:31;6.97;;;3.10;;
76863;SDS011;65834;52.364;9.754;2024-02-26T02:39:01;9.07;;;2.75;;
76863;SDS011;65834;52.364;9.754;2024-02-26T02:41:30;6.87;;;2.63;;
76863;SDS011;65834;52.364;9.754;2024-02-26T02:44:00;5.13;;;2.37;;
76863;SDS011;65834;52.364;9.754;2024-02-26T02:46:30;10.00;;;2.63;;
76863;SDS011;65834;52.364;9.754;2024-02-26T02:49:01;7.10;;;2.70;;
76863;SDS011;65834;52.364;9.754;2024-02-26T02:51:34;5.83;;;2.50;;
76863;SDS011;65834;52.364;9.754;2024-02-26T02:54:04;5.88;;;2.28;;
76863;SDS011;65834;52.364;9.754;2024-02-26T02:56:34;8.17;;;2.50;;
76863;SDS011;65834;52.364;9.754;2024-02-26T02:59:04;7.67;;;2.50;;
76863;SDS011;65834;52.364;9.754;2024-02-26T03:01:34;6.97;;;2.47;;
76863;SDS011;65834;52.364;9.754;2024-02-26T03:04:04;7.03;;;2.60;;
76863;SDS011;65834;52.364;9.754;2024-02-26T03:06:36;4.87;;;2.30;;
76863;SDS011;65834;52.364;9.754;2024-02-26T03:09:06;8.23;;;2.63;;
76863;SDS011;65834;52.364;9.754;2024-02-26T03:11:37;8.70;;;2.73;;
76863;SDS011;65834;52.364;9.754;2024-02-26T03:14:06;9.10;;;2.83;;
76863;SDS011;65834;52.364;9.754;2024-02-26T03:16:36;7.37;;;2.60;;
76863;SDS011;65834;52.364;9.754;2024-02-26T03:19:06;8.30;;;2.50;;
76863;SDS011;65834;52.364;9.754;2024-02-26T03:21:39;6.87;;;2.57;;
76863;SDS011;65834;52.364;9.754;2024-02-26T03:24:08;9.23;;;3.65;;
76863;SDS011;65834;52.364;9.754;2024-02-26T03:26:38;8.07;;;2.90;;
76863;SDS011;65834;52.364;9.754;2024-02-26T03:29:08;7.47;;;2.57;;
76863;SDS011;65834;52.364;9.754;2024-02-26T03:31:38;8.07;;;2.53;;
76863;SDS011;65834;52.364;9.754;2024-02-26T03:34:11;10.67;;;2.60;;
76863;SDS011;65834;52.364;9.754;2024-02-26T03:36:45;7.70;;;2.77;;
76863;SDS011;65834;52.364;9.754;2024-02-26T03:39:14;8.75;;;3.00;;
76863;SDS011;65834;52.364;9.754;2024-02-26T03:41:44;8.13;;;2.57;;
76863;SDS011;65834;52.364;9.754;2024-02-26T03:44:14;6.13;;;2.43;;
76863;SDS011;65834;52.364;9.754;2024-02-26T03:46:44;6.77;;;2.90;;
76863;SDS011;65834;52.364;9.754;2024-02-26T03:49:14;6.13;;;2.30;;
76863;SDS011;65834;52.364;9.754;2024-02-26T03:51:47;6.17;;;2.20;;
76863;SDS011;65834;52.364;9.754;2024-02-26T03:54:17;7.47;;;2.38;;
76863;SDS011;65834;52.364;9.754;2024-02-26T03:56:47;9.53;;;2.50;;
76863;SDS011;65834;52.364;9.754;2024-02-26T03:59:16;7.60;;;2.33;;
76863;SDS011;65834;52.364;9.754;2024-02-26T04:01:47;8.03;;;2.70;;
76863;SDS011;65834;52.364;9.754;2024-02-26T04:04:17;6.83;;;2.47;;
76863;SDS011;65834;52.364;9.754;2024-02-26T04:06:50;6.53;;;2.43;;
76863;SDS011;65834;52.364;9.754;2024-02-26T04:09:20;4.80;;;2.00;;
76863;SDS011;65834;52.364;9.754;2024-02-26T04:11:50;6.87;;;2.20;;
76863;SDS011;65834;52.364;9.754;2024-02-26T04:14:19;8.03;;;2.50;;
76863;SDS011;65834;52.364;9.754;2024-02-26T04:16:49;5.37;;;2.20;;
76863;SDS011;65834;52.364;9.754;2024-02-26T04:19:21;6.67;;;2.07;;
76863;SDS011;65834;52.364;9.754;2024-02-26T04:21:53;5.50;;;1.97;;
76863;SDS011;65834;52.364;9.754;2024-02-26T04:24:23;5.27;;;2.20;;
76863;SDS011;65834;52.364;9.754;2024-02-26T04:26:53;5.80;;;2.07;;
76863;SDS011;65834;52.364;9.754;2024-02-26T04:29:23;5.63;;;2.10;;
76863;SDS011;65834;52.364;9.754;2024-02-26T04:31:53;4.97;;;2.13;;
76863;SDS011;65834;52.364;9.754;2024-02-26T04:34:22;7.63;;;2.30;;
76863;SDS011;65834;52.364;9.754;2024-02-26T04:36:55;5.93;;;2.10;;
76863;SDS011;65834;52.364;9.754;2024-02-26T04:39:25;4.40;;;2.20;;
76863;SDS011;65834;52.364;9.754;2024-02-26T04:41:55;7.73;;;2.90;;
76863;SDS011;65834;52.364;9.754;2024-02-26T04:44:25;7.53;;;2.40;;
76863;SDS011;65834;52.364;9.754;2024-02-26T04:46:54;7.20;;;2.50;;
76863;SDS011;65834;52.364;9.754;2024-02-26T04:49:24;6.37;;;2.23;;
76863;SDS011;65834;52.364;9.754;2024-02-26T04:51:56;6.20;;;2.30;;
76863;SDS011;65834;52.364;9.754;2024-02-26T04:54:26;3.90;;;2.00;;
76863;SDS011;65834;52.364;9.754;2024-02-26T04:56:56;4.77;;;2.10;;
76863;SDS011;65834;52.364;9.754;2024-02-26T04:59:26;7.73;;;2.50;;
76863;SDS011;65834;52.364;9.754;2024-02-26T05:01:56;7.83;;;2.50;;
76863;SDS011;65834;52.364;9.754;2024-02-26T05:04:25;4.93;;;2.37;;
76863;SDS011;65834;52.364;9.754;2024-02-26T05:06:58;7.53;;;2.67;;
76863;SDS011;65834;52.364;9.754;2024-02-26T05:09:28;7.32;;;2.38;;
76863;SDS011;65834;52.364;9.754;2024-02-26T05:11:58;4.50;;;2.50;;
76863;SDS011;65834;52.364;9.754;2024-02-26T05:14:28;7.63;;;2.80;;
76863;SDS011;65834;52.364;9.754;2024-02-26T05:16:58;6.90;;;2.63;;
76863;SDS011;65834;52.364;9.754;2024-02-26T05:19:28;4.87;;;2.60;;
76863;SDS011;65834;52.364;9.754;2024-02-26T05:22:00;7.03;;;2.27;;
76863;SDS011;65834;52.364;9.754;2024-02-26T05:24:30;6.40;;;2.50;;
76863;SDS011;65834;52.364;9.754;2024-02-26T05:27:00;6.00;;;2.60;;
76863;SDS011;65834;52.364;9.754;2024-02-26T05:29:30;7.07;;;2.50;;
76863;SDS011;65834;52.364;9.754;2024-02-26T05:32:00;7.17;;;2.80;;
76863;SDS011;65834;52.364;9.754;2024-02-26T05:34:30;7.07;;;2.47;;
76863;SDS011;65834;52.364;9.754;2024-02-26T05:37:03;7.20;;;2.63;;
76863;SDS011;65834;52.364;9.754;2024-02-26T05:39:34;9.57;;;2.67;;
76863;SDS011;65834;52.364;9.754;2024-02-26T05:42:04;7.43;;;2.77;;
76863;SDS011;65834;52.364;9.754;2024-02-26T05:44:35;5.73;;;2.37;;
76863;SDS011;65834;52.364;9.754;2024-02-26T05:47:05;5.37;;;2.43;;
76863;SDS011;65834;52.364;9.754;2024-02-26T05:49:35;5.73;;;2.50;;
76863;SDS011;65834;52.364;9.754;2024-02-26T05:52:08;8.67;;;2.80;;
76863;SDS011;65834;52.364;9.754;2024-02-26T05:54:37;6.28;;;2.65;;
76863;SDS011;65834;52.364;9.754;2024-02-26T05:57:07;7.20;;;2.50;;
76863;SDS011;65834;52.364;9.754;2024-02-26T05:59:37;8.93;;;2.80;;
76863;SDS011;65834;52.364;9.754;2024-02-26T06:02:08;6.90;;;2.90;;
76863;SDS011;65834;52.364;9.754;2024-02-26T06:04:37;6.70;;;2.53;;
76863;SDS011;65834;52.364;9.754;2024-02-26T06:07:10;9.23;;;2.63;;
76863;SDS011;65834;52.364;9.754;2024-02-26T06:09:39;7.13;;;2.30;;
76863;SDS011;65834;52.364;9.754;2024-02-26T06:12:10;7.57;;;2.60;;
76863;SDS011;65834;52.364;9.754;2024-02-26T06:14:39;7.50;;;2.53;;
76863;SDS011;65834;52.364;9.754;2024-02-26T06:17:09;5.70;;;2.53;;
76863;SDS011;65834;52.364;9.754;2024-02-26T06:19:38;6.17;;;2.70;;
76863;SDS011;65834;52.364;9.754;2024-02-26T06:22:11;9.10;;;3.00;;
76863;SDS011;65834;52.364;9.754;2024-02-26T06:24:40;6.88;;;2.72;;
76863;SDS011;65834;52.364;9.754;2024-02-26T06:27:10;7.53;;;2.97;;
76863;SDS011;65834;52.364;9.754;2024-02-26T06:29:39;6.27;;;2.33;;
76863;SDS011;65834;52.364;9.754;2024-02-26T06:32:09;10.03;;;3.17;;
76863;SDS011;65834;52.364;9.754;2024-02-26T06:34:39;6.97;;;2.60;;
76863;SDS011;65834;52.364;9.754;2024-02-26T06:37:11;8.67;;;2.90;;
76863;SDS011;65834;52.364;9.754;2024-02-26T06:39:41;9.50;;;2.85;;
76863;SDS011;65834;52.364;9.754;2024-02-26T06:42:10;7.10;;;2.73;;
76863;SDS011;65834;52.364;9.754;2024-02-26T06:44:40;9.53;;;2.83;;
76863;SDS011;65834;52.364;9.754;2024-02-26T06:47:10;9.30;;;3.00;;
76863;SDS011;65834;52.364;9.754;2024-02-26T06:49:40;9.47;;;3.10;;
76863;SDS011;65834;52.364;9.754;2024-02-26T06:52:13;7.73;;;3.30;;
76863;SDS011;65834;52.364;9.754;2024-02-26T06:54:43;9.32;;;2.78;;
76863;SDS011;65834;52.364;9.754;2024-02-26T06:57:14;8.47;;;2.80;;
76863;SDS011;65834;52.364;9.754;2024-02-26T06:59:44;8.93;;;2.77;;
76863;SDS011;65834;52.364;9.754;2024-02-26T07:02:14;9.73;;;3.10;;
76863;SDS011;65834;52.364;9.754;2024-02-26T07:04:45;8.27;;;3.23;;
76863;SDS011;65834;52.364;9.754;2024-02-26T07:07:17;8.93;;;3.13;;
76863;SDS011;65834;52.364;9.754;2024-02-26T07:09:49;8.10;;;2.83;;
76863;SDS011;65834;52.364;9.754;2024-02-26T07:12:18;7.67;;;2.90;;
76863;SDS011;65834;52.364;9.754;2024-02-26T07:14:49;6.07;;;2.80;;
76863;SDS011;65834;52.364;9.754;2024-02-26T07:17:19;7.93;;;3.43;;
76863;SDS011;65834;52.364;9.754;2024-02-26T07:19:48;7.63;;;3.17;;
76863;SDS011;65834;52.364;9.754;2024-02-26T07:22:21;9.30;;;3.07;;
76863;SDS011;65834;52.364;9.754;2024-02-26T07:24:51;7.65;;;3.22;;
76863;SDS011;65834;52.364;9.754;2024-02-26T07:27:21;9.77;;;3.47;;
76863;SDS011;65834;52.364;9.754;2024-02-26T07:29:51;8.53;;;3.17;;
76863;SDS011;65834;52.364;9.754;2024-02-26T07:32:21;6.77;;;3.53;;
76863;SDS011;65834;52.364;9.754;2024-02-26T07:34:51;8.27;;;3.10;;
76863;SDS011;65834;52.364;9.754;2024-02-26T07:37:24;8.50;;;3.40;;
76863;SDS011;65834;52.364;9.754;2024-02-26T07:39:53;12.05;;;3.90;;
76863;SDS011;65834;52.364;9.754;2024-02-26T07:42:24;8.73;;;3.17;;
76863;SDS011;65834;52.364;9.754;2024-02-26T07:44:53;8.50;;;3.33;;
76863;SDS011;65834;52.364;9.754;2024-02-26T07:47:23;8.13;;;3.20;;
76863;SDS011;65834;52.364;9.754;2024-02-26T07:49:53;9.13;;;3.50;;
76863;SDS011;65834;52.364;9.754;2024-02-26T07:52:26;8.17;;;3.73;;
76863;SDS011;65834;52.364;9.754;2024-02-26T07:54:55;11.40;;;3.58;;
76863;SDS011;65834;52.364;9.754;2024-02-26T07:57:25;10.10;;;3.47;;
76863;SDS011;65834;52.364;9.754;2024-02-26T07:59:55;10.73;;;3.80;;
76863;SDS011;65834;52.364;9.754;2024-02-26T08:02:25;8.43;;;2.97;;
76863;SDS011;65834;52.364;9.754;2024-02-26T08:04:55;8.70;;;3.50;;
76863;SDS011;65834;52.364;9.754;2024-02-26T08:07:28;8.03;;;3.53;;
76863;SDS011;65834;52.364;9.754;2024-02-26T08:09:57;8.90;;;3.67;;
76863;SDS011;65834;52.364;9.754;2024-02-26T08:12:28;8.67;;;3.43;;
76863;SDS011;65834;52.364;9.754;2024-02-26T08:14:57;10.37;;;3.90;;
76863;SDS011;65834;52.364;9.754;2024-02-26T08:17:28;8.87;;;3.73;;
76863;SDS011;65834;52.364;9.754;2024-02-26T08:19:59;8.37;;;3.90;;
76863;SDS011;65834;52.364;9.754;2024-02-26T08:22:32;10.20;;;3.73;;
76863;SDS011;65834;52.364;9.754;2024-02-26T08:25:02;11.43;;;3.83;;
76863;SDS011;65834;52.364;9.754;2024-02-26T08:27:33;11.40;;;3.70;;
76863;SDS011;65834;52.364;9.754;2024-02-26T08:30:03;8.33;;;3.50;;
76863;SDS011;65834;52.364;9.754;2024-02-26T08:32:35;8.47;;;3.30;;
76863;SDS011;65834;52.364;9.754;2024-02-26T08:35:04;10.30;;;3.70;;
76863;SDS011;65834;52.364;9.754;2024-02-26T08:37:37;7.17;;;2.97;;
76863;SDS011;65834;52.364;9.754;2024-02-26T08:42:37;8.17;;;3.03;;
76863;SDS011;65834;52.364;9.754;2024-02-26T08:45:07;8.47;;;2.97;;
76863;SDS011;65834;52.364;9.754;2024-02-26T08:47:39;7.77;;;2.80;;
76863;SDS011;65834;52.364;9.754;2024-02-26T08:50:08;9.90;;;3.17;;
76863;SDS011;65834;52.364;9.754;2024-02-26T08:52:42;7.93;;;2.70;;
76863;SDS011;65834;52.364;9.754;2024-02-26T08:55:15;8.27;;;2.70;;
76863;SDS011;65834;52.364;9.754;2024-02-26T08:57:44;7.27;;;2.70;;
76863;SDS011;65834;52.364;9.754;2024-02-26T09:00:15;9.00;;;3.00;;
76863;SDS011;65834;52.364;9.754;2024-02-26T09:02:47;8.52;;;3.20;;
76863;SDS011;65834;52.364;9.754;2024-02-26T09:05:17;8.73;;;2.70;;
76863;SDS011;65834;52.364;9.754;2024-02-26T09:07:49;7.73;;;2.70;;
76863;SDS011;65834;52.364;9.754;2024-02-26T09:10:19;6.88;;;2.83;;
76863;SDS011;65834;52.364;9.754;2024-02-26T09:12:49;8.40;;;2.60;;
76863;SDS011;65834;52.364;9.754;2024-02-26T09:15:18;6.07;;;2.80;;
76863;SDS011;65834;52.364;9.754;2024-02-26T09:17:48;5.57;;;2.20;;
76863;SDS011;65834;52.364;9.754;2024-02-26T09:20:19;5.63;;;2.70;;
76863;SDS011;65834;52.364;9.754;2024-02-26T09:22:52;4.87;;;2.10;;
76863;SDS011;65834;52.364;9.754;2024-02-26T09:25:22;6.03;;;2.45;;
76863;SDS011;65834;52.364;9.754;2024-02-26T09:27:52;6.87;;;2.57;;
76863;SDS011;65834;52.364;9.754;2024-02-26T09:30:22;8.77;;;2.87;;
76863;SDS011;65834;52.364;9.754;2024-02-26T09:32:52;6.80;;;2.53;;
76863;SDS011;65834;52.364;9.754;2024-02-26T09:35:21;6.00;;;2.53;;
76863;SDS011;65834;52.364;9.754;2024-02-26T09:37:55;5.80;;;2.57;;
76863;SDS011;65834;52.364;9.754;2024-02-26T09:40:25;6.25;;;2.65;;
76863;SDS011;65834;52.364;9.754;2024-02-26T09:42:56;7.63;;;2.60;;
76863;SDS011;65834;52.364;9.754;2024-02-26T09:45:29;4.97;;;2.10;;
76863;SDS011;65834;52.364;9.754;2024-02-26T09:48:02;8.07;;;2.20;;
76863;SDS011;65834;52.364;9.754;2024-02-26T09:50:37;5.33;;;2.03;;
76863;SDS011;65834;52.364;9.754;2024-02-26T09:53:12;4.37;;;1.90;;
76863;SDS011;65834;52.364;9.754;2024-02-26T09:55:42;4.93;;;2.30;;
76863;SDS011;65834;52.364;9.754;2024-02-26T09:58:12;4.47;;;2.10;;
76863;SDS011;65834;52.364;9.754;2024-02-26T10:00:46;4.53;;;2.00;;
76863;SDS011;65834;52.364;9.754;2024-02-26T10:03:21;4.63;;;1.80;;
76863;SDS011;65834;52.364;9.754;2024-02-26T10:05:54;4.87;;;2.10;;
76863;SDS011;65834;52.364;9.754;2024-02-26T10:08:28;4.30;;;1.70;;
76863;SDS011;65834;52.364;9.754;2024-02-26T10:10:58;4.30;;;1.90;;
76863;SDS011;65834;52.364;9.754;2024-02-26T10:13:29;4.60;;;1.80;;
76863;SDS011;65834;52.364;9.754;2024-02-26T10:15:59;4.03;;;2.03;;
76863;SDS011;65834;52.364;9.754;2024-02-26T10:18:44;4.77;;;1.97;;
76863;SDS011;65834;52.364;9.754;2024-02-26T10:21:23;6.28;;;1.88;;
76863;SDS011;65834;52.364;9.754;2024-02-26T10:23:55;5.23;;;2.10;;
76863;SDS011;65834;52.364;9.754;2024-02-26T10:26:25;3.40;;;1.67;;
76863;SDS011;65834;52.364;9.754;2024-02-26T10:28:55;5.87;;;2.00;;
76863;SDS011;65834;52.364;9.754;2024-02-26T10:31:29;4.47;;;1.70;;
76863;SDS011;65834;52.364;9.754;2024-02-26T10:33:59;6.37;;;2.73;;
76863;SDS011;65834;52.364;9.754;2024-02-26T10:36:33;5.33;;;2.30;;
76863;SDS011;65834;52.364;9.754;2024-02-26T10:39:13;6.57;;;2.30;;
76863;SDS011;65834;52.364;9.754;2024-02-26T10:41:43;5.03;;;2.13;;
76863;SDS011;65834;52.364;9.754;2024-02-26T10:44:14;6.20;;;2.30;;
76863;SDS011;65834;52.364;9.754;2024-02-26T10:46:45;7.13;;;2.13;;
76863;SDS011;65834;52.364;9.754;2024-02-26T10:49:17;5.60;;;2.47;;
76863;SDS011;65834;52.364;9.754;2024-02-26T10:51:49;4.20;;;2.10;;
76863;SDS011;65834;52.364;9.754;2024-02-26T10:54:26;6.13;;;2.00;;
76863;SDS011;65834;52.364;9.754;2024-02-26T10:56:58;5.17;;;2.10;;
76863;SDS011;65834;52.364;9.754;2024-02-26T10:59:29;4.33;;;2.00;;
76863;SDS011;65834;52.364;9.754;2024-02-26T11:02:02;5.50;;;2.23;;
76863;SDS011;65834;52.364;9.754;2024-02-26T11:04:33;4.47;;;2.20;;
76863;SDS011;65834;52.364;9.754;2024-02-26T11:07:03;7.23;;;2.50;;
76863;SDS011;65834;52.364;9.754;2024-02-26T11:09:39;4.83;;;2.23;;
76863;SDS011;65834;52.364;9.754;2024-02-26T11:12:11;6.97;;;2.27;;
76863;SDS011;65834;52.364;9.754;2024-02-26T11:14:42;6.13;;;2.20;;
76863;SDS011;65834;52.364;9.754;2024-02-26T11:19:45;6.57;;;2.33;;
76863;SDS011;65834;52.364;9.754;2024-02-26T11:22:17;7.40;;;2.07;;
76863;SDS011;65834;52.364;9.754;2024-02-26T11:24:53;8.57;;;2.40;;
76863;SDS011;65834;52.364;9.754;2024-02-26T11:27:26;5.47;;;2.03;;
76863;SDS011;65834;52.364;9.754;2024-02-26T11:30:00;6.37;;;2.70;;
76863;SDS011;65834;52.364;9.754;2024-02-26T11:32:32;4.60;;;2.00;;
76863;SDS011;65834;52.364;9.754;2024-02-26T11:35:02;6.53;;;2.53;;
76863;SDS011;65834;52.364;9.754;2024-02-26T11:37:34;4.35;;;2.30;;
76863;SDS011;65834;52.364;9.754;2024-02-26T11:42:43;5.43;;;2.13;;
76863;SDS011;65834;52.364;9.754;2024-02-26T11:48:22;5.33;;;2.13;;
76863;SDS011;65834;52.364;9.754;2024-02-26T11:50:53;6.03;;;2.33;;
76863;SDS011;65834;52.364;9.754;2024-02-26T11:53:24;6.80;;;2.50;;
76863;SDS011;65834;52.364;9.754;2024-02-26T11:59:00;5.67;;;2.27;;
76863;SDS011;65834;52.364;9.754;2024-02-26T12:01:41;5.73;;;2.20;;
76863;SDS011;65834;52.364;9.754;2024-02-26T12:04:16;7.20;;;2.58;;
76863;SDS011;65834;52.364;9.754;2024-02-26T12:06:51;6.10;;;2.73;;
76863;SDS011;65834;52.364;9.754;2024-02-26T12:09:31;7.37;;;2.40;;
76863;SDS011;65834;52.364;9.754;2024-02-26T12:12:06;5.07;;;2.33;;
76863;SDS011;65834;52.364;9.754;2024-02-26T12:14:38;6.27;;;2.40;;
76863;SDS011;65834;52.364;9.754;2024-02-26T12:17:08;5.97;;;2.60;;
76863;SDS011;65834;52.364;9.754;2024-02-26T12:19:48;4.70;;;2.10;;
76863;SDS011;65834;52.364;9.754;2024-02-26T12:22:19;8.23;;;2.70;;
76863;SDS011;65834;52.364;9.754;2024-02-26T12:24:57;7.70;;;2.50;;
76863;SDS011;65834;52.364;9.754;2024-02-26T12:27:32;5.30;;;2.47;;
76863;SDS011;65834;52.364;9.754;2024-02-26T12:30:02;6.80;;;2.55;;
76863;SDS011;65834;52.364;9.754;2024-02-26T12:32:33;6.33;;;2.10;;
76863;SDS011;65834;52.364;9.754;2024-02-26T12:35:03;5.00;;;2.30;;
76863;SDS011;65834;52.364;9.754;2024-02-26T12:37:34;6.73;;;2.40;;
76863;SDS011;65834;52.364;9.754;2024-02-26T12:40:08;4.53;;;2.20;;
76863;SDS011;65834;52.364;9.754;2024-02-26T12:42:44;6.17;;;2.40;;
76863;SDS011;65834;52.364;9.754;2024-02-26T12:45:20;6.10;;;2.43;;
76863;SDS011;65834;52.364;9.754;2024-02-26T12:47:53;8.05;;;3.20;;
76863;SDS011;65834;52.364;9.754;2024-02-26T12:50:26;7.13;;;2.53;;
76863;SDS011;65834;52.364;9.754;2024-02-26T12:52:56;6.03;;;2.63;;
76863;SDS011;65834;52.364;9.754;2024-02-26T12:55:26;6.27;;;2.63;;
76863;SDS011;65834;52.364;9.754;2024-02-26T12:58:00;8.13;;;2.90;;
76863;SDS011;65834;52.364;9.754;2024-02-26T13:00:30;7.30;;;2.42;;
76863;SDS011;65834;52.364;9.754;2024-02-26T13:03:04;6.27;;;2.60;;
76863;SDS011;65834;52.364;9.754;2024-02-26T13:05:34;8.77;;;2.83;;
76863;SDS011;65834;52.364;9.754;2024-02-26T13:08:05;7.67;;;3.00;;
76863;SDS011;65834;52.364;9.754;2024-02-26T13:10:39;6.83;;;3.03;;
76863;SDS011;65834;52.364;9.754;2024-02-26T13:13:14;6.77;;;2.80;;
76863;SDS011;65834;52.364;9.754;2024-02-26T13:15:44;6.70;;;2.50;;
76863;SDS011;65834;52.364;9.754;2024-02-26T13:18:14;6.17;;;2.40;;
76863;SDS011;65834;52.364;9.754;2024-02-26T13:20:44;9.33;;;3.17;;
76863;SDS011;65834;52.364;9.754;2024-02-26T13:23:14;6.73;;;2.90;;
76863;SDS011;65834;52.364;9.754;2024-02-26T13:25:43;6.33;;;2.70;;
76863;SDS011;65834;52.364;9.754;2024-02-26T13:28:16;7.40;;;2.80;;
76863;SDS011;65834;52.364;9.754;2024-02-26T13:30:51;7.13;;;2.50;;
76863;SDS011;65834;52.364;9.754;2024-02-26T13:33:23;6.77;;;2.53;;
76863;SDS011;65834;52.364;9.754;2024-02-26T13:35:54;7.10;;;2.97;;
76863;SDS011;65834;52.364;9.754;2024-02-26T13:38:24;8.10;;;3.10;;
76863;SDS011;65834;52.364;9.754;2024-02-26T13:40:54;6.40;;;2.70;;
76863;SDS011;65834;52.364;9.754;2024-02-26T13:43:27;7.03;;;2.67;;
76863;SDS011;65834;52.364;9.754;2024-02-26T13:45:56;8.02;;;2.70;;
76863;SDS011;65834;52.364;9.754;2024-02-26T13:48:27;8.23;;;2.60;;
76863;SDS011;65834;52.364;9.754;2024-02-26T13:50:56;8.43;;;2.73;;
76863;SDS011;65834;52.364;9.754;2024-02-26T13:53:26;5.43;;;2.70;;
76863;SDS011;65834;52.364;9.754;2024-02-26T13:55:58;6.22;;;2.40;;
76863;SDS011;65834;52.364;9.754;2024-02-26T13:58:33;6.85;;;2.38;;
76863;SDS011;65834;52.364;9.754;2024-02-26T14:01:03;7.68;;;2.85;;
76863;SDS011;65834;52.364;9.754;2024-02-26T14:03:35;7.87;;;2.87;;
76863;SDS011;65834;52.364;9.754;2024-02-26T14:06:05;6.20;;;2.50;;
76863;SDS011;65834;52.364;9.754;2024-02-26T14:08:36;6.70;;;2.20;;
76863;SDS011;65834;52.364;9.754;2024-02-26T14:11:05;5.70;;;2.60;;
76863;SDS011;65834;52.364;9.754;2024-02-26T14:13:39;5.30;;;2.10;;
76863;SDS011;65834;52.364;9.754;2024-02-26T14:16:11;6.53;;;2.30;;
76863;SDS011;65834;52.364;9.754;2024-02-26T14:18:41;7.27;;;2.60;;
76863;SDS011;65834;52.364;9.754;2024-02-26T14:21:12;7.23;;;2.57;;
76863;SDS011;65834;52.364;9.754;2024-02-26T14:23:42;6.37;;;2.20;;
76863;SDS011;65834;52.364;9.754;2024-02-26T14:26:12;8.20;;;2.30;;
76863;SDS011;65834;52.364;9.754;2024-02-26T14:28:44;6.70;;;2.50;;
76863;SDS011;65834;52.364;9.754;2024-02-26T14:31:16;6.90;;;2.92;;
76863;SDS011;65834;52.364;9.754;2024-02-26T14:33:47;7.60;;;2.50;;
76863;SDS011;65834;52.364;9.754;2024-02-26T14:36:20;6.33;;;2.73;;
76863;SDS011;65834;52.364;9.754;2024-02-26T14:38:50;6.20;;;2.20;;
76863;SDS011;65834;52.364;9.754;2024-02-26T14:41:20;5.83;;;2.53;;
76863;SDS011;65834;52.364;9.754;2024-02-26T14:43:53;6.30;;;2.80;;
76863;SDS011;65834;52.364;9.754;2024-02-26T14:48:54;6.43;;;2.20;;
76863;SDS011;65834;52.364;9.754;2024-02-26T14:51:24;6.07;;;2.47;;
76863;SDS011;65834;52.364;9.754;2024-02-26T14:53:54;6.57;;;2.70;;
76863;SDS011;65834;52.364;9.754;2024-02-26T14:56:25;5.20;;;2.43;;
76863;SDS011;65834;52.364;9.754;2024-02-26T14:58:58;6.07;;;2.57;;
76863;SDS011;65834;52.364;9.754;2024-02-26T15:01:28;8.88;;;3.25;;
76863;SDS011;65834;52.364;9.754;2024-02-26T15:03:58;6.97;;;2.87;;
76863;SDS011;65834;52.364;9.754;2024-02-26T15:06:28;7.33;;;2.30;;
76863;SDS011;65834;52.364;9.754;2024-02-26T15:08:58;7.80;;;2.57;;
76863;SDS011;65834;52.364;9.754;2024-02-26T15:11:27;7.50;;;2.83;;
76863;SDS011;65834;52.364;9.754;2024-02-26T15:14:00;5.97;;;2.47;;
76863;SDS011;65834;52.364;9.754;2024-02-26T15:16:30;7.13;;;2.83;;
76863;SDS011;65834;52.364;9.754;2024-02-26T15:19:00;7.43;;;2.70;;
76863;SDS011;65834;52.364;9.754;2024-02-26T15:21:29;5.27;;;2.23;;
76863;SDS011;65834;52.364;9.754;2024-02-26T15:23:59;5.90;;;2.30;;
76863;SDS011;65834;52.364;9.754;2024-02-26T15:26:33;7.00;;;2.47;;